sensor_id;sensor_type;location;lat;lon;timestamp;P1;durP1;ratioP1;P2;durP2;ratioP2
3307;SDS011;1666;48.898;9.182;2023-08-17T00:02:18;11.10;;;9.63;;
3307;SDS011;1666;48.898;9.182;2023-08-17T00:04:47;13.80;;;9.30;;
3307;SDS011;1666;48.898;9.182;2023-08-17T00:07:17;13.25;;;9.70;;
3307;SDS011;1666;48.898;9.182;2023-08-17T00:09:50;13.20;;;9.35;;
3307;SDS011;1666;48.898;9.182;2023-08-17T00:12:20;11.25;;;9.70;;
3307;SDS011;1666;48.898;9.182;2023-08-17T00:14:50;11.85;;;9.50;;
3307;SDS011;1666;48.898;9.182;2023-08-17T00:17:20;13.15;;;9.50;;
3307;SDS011;1666;48.898;9.182;2023-08-17T00:19:51;15.10;;;10.23;;
3307;SDS011;1666;48.898;9.182;2023-08-17T00:22:21;12.63;;;10.38;;
3307;SDS011;1666;48.898;9.182;2023-08-17T00:24:54;11.30;;;9.90;;
3307;SDS011;1666;48.898;9.182;2023-08-17T00:27:23;11.57;;;9.85;;
3307;SDS011;1666;48.898;9.182;2023-08-17T00:29:53;12.50;;;10.60;;
3307;SDS011;1666;48.898;9.182;2023-08-17T00:32:23;14.40;;;11.65;;
3307;SDS011;1666;48.898;9.182;2023-08-17T00:34:53;13.70;;;12.23;;
3307;SDS011;1666;48.898;9.182;2023-08-17T00:37:23;18.52;;;15.05;;
3307;SDS011;1666;48.898;9.182;2023-08-17T00:39:56;19.70;;;16.33;;
3307;SDS011;1666;48.898;9.182;2023-08-17T00:42:26;21.75;;;15.80;;
3307;SDS011;1666;48.898;9.182;2023-08-17T00:44:56;18.38;;;16.13;;
3307;SDS011;1666;48.898;9.182;2023-08-17T00:47:26;20.15;;;16.20;;
3307;SDS011;1666;48.898;9.182;2023-08-17T00:49:57;19.67;;;16.50;;
3307;SDS011;1666;48.898;9.182;2023-08-17T00:52:29;18.77;;;16.45;;
3307;SDS011;1666;48.898;9.182;2023-08-17T00:55:04;18.23;;;15.23;;
3307;SDS011;1666;48.898;9.182;2023-08-17T01:00:06;15.10;;;13.60;;
3307;SDS011;1666;48.898;9.182;2023-08-17T01:02:38;15.38;;;13.73;;
3307;SDS011;1666;48.898;9.182;2023-08-17T01:05:08;17.08;;;13.85;;
3307;SDS011;1666;48.898;9.182;2023-08-17T01:07:38;15.95;;;14.32;;
3307;SDS011;1666;48.898;9.182;2023-08-17T01:10:11;17.77;;;15.00;;
3307;SDS011;1666;48.898;9.182;2023-08-17T01:12:42;18.50;;;14.45;;
3307;SDS011;1666;48.898;9.182;2023-08-17T01:15:18;16.73;;;14.60;;
3307;SDS011;1666;48.898;9.182;2023-08-17T01:17:52;19.65;;;16.20;;
3307;SDS011;1666;48.898;9.182;2023-08-17T01:20:26;16.33;;;14.57;;
3307;SDS011;1666;48.898;9.182;2023-08-17T01:23:03;17.52;;;14.63;;
3307;SDS011;1666;48.898;9.182;2023-08-17T01:25:35;15.73;;;14.07;;
3307;SDS011;1666;48.898;9.182;2023-08-17T01:28:05;17.17;;;13.02;;
3307;SDS011;1666;48.898;9.182;2023-08-17T01:30:37;15.63;;;13.18;;
3307;SDS011;1666;48.898;9.182;2023-08-17T01:33:11;15.57;;;13.10;;
3307;SDS011;1666;48.898;9.182;2023-08-17T01:35:51;17.33;;;14.48;;
3307;SDS011;1666;48.898;9.182;2023-08-17T01:38:29;17.75;;;15.10;;
3307;SDS011;1666;48.898;9.182;2023-08-17T01:41:02;17.83;;;14.75;;
3307;SDS011;1666;48.898;9.182;2023-08-17T01:43:33;16.63;;;14.82;;
3307;SDS011;1666;48.898;9.182;2023-08-17T01:46:03;16.02;;;14.00;;
3307;SDS011;1666;48.898;9.182;2023-08-17T01:48:33;16.85;;;13.98;;
3307;SDS011;1666;48.898;9.182;2023-08-17T01:51:03;17.30;;;12.57;;
3307;SDS011;1666;48.898;9.182;2023-08-17T01:53:36;17.48;;;11.82;;
3307;SDS011;1666;48.898;9.182;2023-08-17T01:56:06;13.38;;;9.30;;
3307;SDS011;1666;48.898;9.182;2023-08-17T01:58:36;12.40;;;9.60;;
3307;SDS011;1666;48.898;9.182;2023-08-17T02:01:06;11.35;;;9.00;;
3307;SDS011;1666;48.898;9.182;2023-08-17T02:03:36;10.90;;;9.30;;
3307;SDS011;1666;48.898;9.182;2023-08-17T02:06:06;11.35;;;9.73;;
3307;SDS011;1666;48.898;9.182;2023-08-17T02:08:38;10.75;;;8.77;;
3307;SDS011;1666;48.898;9.182;2023-08-17T02:11:08;10.75;;;9.18;;
3307;SDS011;1666;48.898;9.182;2023-08-17T02:13:38;9.73;;;8.73;;
3307;SDS011;1666;48.898;9.182;2023-08-17T02:16:08;12.45;;;9.65;;
3307;SDS011;1666;48.898;9.182;2023-08-17T02:18:38;12.40;;;9.18;;
3307;SDS011;1666;48.898;9.182;2023-08-17T02:21:08;13.50;;;10.13;;
3307;SDS011;1666;48.898;9.182;2023-08-17T02:23:41;15.35;;;12.00;;
3307;SDS011;1666;48.898;9.182;2023-08-17T02:26:11;12.05;;;10.73;;
3307;SDS011;1666;48.898;9.182;2023-08-17T02:28:41;15.07;;;11.75;;
3307;SDS011;1666;48.898;9.182;2023-08-17T02:31:11;13.20;;;11.30;;
3307;SDS011;1666;48.898;9.182;2023-08-17T02:33:41;15.30;;;12.43;;
3307;SDS011;1666;48.898;9.182;2023-08-17T02:36:11;14.25;;;12.02;;
3307;SDS011;1666;48.898;9.182;2023-08-17T02:38:44;13.38;;;10.95;;
3307;SDS011;1666;48.898;9.182;2023-08-17T02:41:15;15.15;;;11.50;;
3307;SDS011;1666;48.898;9.182;2023-08-17T02:43:45;12.35;;;10.02;;
3307;SDS011;1666;48.898;9.182;2023-08-17T02:46:15;11.57;;;9.15;;
3307;SDS011;1666;48.898;9.182;2023-08-17T02:48:45;14.00;;;10.20;;
3307;SDS011;1666;48.898;9.182;2023-08-17T02:51:16;14.52;;;9.30;;
3307;SDS011;1666;48.898;9.182;2023-08-17T02:53:48;13.48;;;10.43;;
3307;SDS011;1666;48.898;9.182;2023-08-17T02:56:18;15.30;;;9.95;;
3307;SDS011;1666;48.898;9.182;2023-08-17T02:58:48;12.13;;;9.68;;
3307;SDS011;1666;48.898;9.182;2023-08-17T03:01:18;12.27;;;9.75;;
3307;SDS011;1666;48.898;9.182;2023-08-17T03:03:48;15.73;;;10.65;;
3307;SDS011;1666;48.898;9.182;2023-08-17T03:06:18;12.38;;;9.80;;
3307;SDS011;1666;48.898;9.182;2023-08-17T03:08:51;18.40;;;10.10;;
3307;SDS011;1666;48.898;9.182;2023-08-17T03:11:21;15.20;;;10.60;;
3307;SDS011;1666;48.898;9.182;2023-08-17T03:13:51;14.40;;;10.60;;
3307;SDS011;1666;48.898;9.182;2023-08-17T03:16:26;19.08;;;11.00;;
3307;SDS011;1666;48.898;9.182;2023-08-17T03:18:57;20.38;;;11.90;;
3307;SDS011;1666;48.898;9.182;2023-08-17T03:21:27;17.38;;;11.45;;
3307;SDS011;1666;48.898;9.182;2023-08-17T03:24:00;15.45;;;11.15;;
3307;SDS011;1666;48.898;9.182;2023-08-17T03:26:30;19.65;;;12.55;;
3307;SDS011;1666;48.898;9.182;2023-08-17T03:28:59;20.75;;;11.65;;
3307;SDS011;1666;48.898;9.182;2023-08-17T03:31:29;19.42;;;12.52;;
3307;SDS011;1666;48.898;9.182;2023-08-17T03:33:59;16.80;;;11.93;;
3307;SDS011;1666;48.898;9.182;2023-08-17T03:36:29;19.95;;;12.23;;
3307;SDS011;1666;48.898;9.182;2023-08-17T03:39:02;19.77;;;11.77;;
3307;SDS011;1666;48.898;9.182;2023-08-17T03:41:32;21.88;;;12.05;;
3307;SDS011;1666;48.898;9.182;2023-08-17T03:44:03;24.88;;;13.15;;
3307;SDS011;1666;48.898;9.182;2023-08-17T03:46:35;26.73;;;13.50;;
3307;SDS011;1666;48.898;9.182;2023-08-17T03:49:05;19.63;;;13.65;;
3307;SDS011;1666;48.898;9.182;2023-08-17T03:51:35;25.42;;;14.98;;
3307;SDS011;1666;48.898;9.182;2023-08-17T03:54:08;26.00;;;15.52;;
3307;SDS011;1666;48.898;9.182;2023-08-17T03:56:38;26.05;;;15.85;;
3307;SDS011;1666;48.898;9.182;2023-08-17T03:59:07;22.90;;;15.02;;
3307;SDS011;1666;48.898;9.182;2023-08-17T04:01:37;22.92;;;13.80;;
3307;SDS011;1666;48.898;9.182;2023-08-17T04:04:07;23.98;;;14.48;;
3307;SDS011;1666;48.898;9.182;2023-08-17T04:06:37;25.23;;;15.07;;
3307;SDS011;1666;48.898;9.182;2023-08-17T04:09:10;26.10;;;15.63;;
3307;SDS011;1666;48.898;9.182;2023-08-17T04:11:40;26.55;;;14.85;;
3307;SDS011;1666;48.898;9.182;2023-08-17T04:14:10;31.33;;;16.33;;
3307;SDS011;1666;48.898;9.182;2023-08-17T04:16:41;30.63;;;17.02;;
3307;SDS011;1666;48.898;9.182;2023-08-17T04:19:11;29.30;;;16.05;;
3307;SDS011;1666;48.898;9.182;2023-08-17T04:21:41;33.83;;;17.15;;
3307;SDS011;1666;48.898;9.182;2023-08-17T04:24:14;30.63;;;15.75;;
3307;SDS011;1666;48.898;9.182;2023-08-17T04:26:44;26.98;;;16.10;;
3307;SDS011;1666;48.898;9.182;2023-08-17T04:29:13;28.88;;;16.83;;
3307;SDS011;1666;48.898;9.182;2023-08-17T04:31:43;33.80;;;17.75;;
3307;SDS011;1666;48.898;9.182;2023-08-17T04:34:13;32.20;;;18.10;;
3307;SDS011;1666;48.898;9.182;2023-08-17T04:36:43;28.35;;;16.95;;
3307;SDS011;1666;48.898;9.182;2023-08-17T04:39:16;39.38;;;18.17;;
3307;SDS011;1666;48.898;9.182;2023-08-17T04:41:46;30.10;;;17.95;;
3307;SDS011;1666;48.898;9.182;2023-08-17T04:44:16;27.10;;;16.67;;
3307;SDS011;1666;48.898;9.182;2023-08-17T04:46:46;27.45;;;17.88;;
3307;SDS011;1666;48.898;9.182;2023-08-17T04:49:16;31.85;;;18.23;;
3307;SDS011;1666;48.898;9.182;2023-08-17T04:51:46;28.95;;;17.85;;
3307;SDS011;1666;48.898;9.182;2023-08-17T04:54:18;31.60;;;17.80;;
3307;SDS011;1666;48.898;9.182;2023-08-17T04:56:48;30.30;;;18.27;;
3307;SDS011;1666;48.898;9.182;2023-08-17T04:59:18;28.10;;;16.95;;
3307;SDS011;1666;48.898;9.182;2023-08-17T05:01:48;26.58;;;16.60;;
3307;SDS011;1666;48.898;9.182;2023-08-17T05:04:18;25.58;;;16.77;;
3307;SDS011;1666;48.898;9.182;2023-08-17T05:06:48;21.27;;;15.38;;
3307;SDS011;1666;48.898;9.182;2023-08-17T05:09:21;22.30;;;15.50;;
3307;SDS011;1666;48.898;9.182;2023-08-17T05:11:51;25.75;;;16.40;;
3307;SDS011;1666;48.898;9.182;2023-08-17T05:14:21;30.83;;;16.25;;
3307;SDS011;1666;48.898;9.182;2023-08-17T05:16:50;21.10;;;15.75;;
3307;SDS011;1666;48.898;9.182;2023-08-17T05:19:20;25.77;;;16.77;;
3307;SDS011;1666;48.898;9.182;2023-08-17T05:21:50;27.70;;;15.57;;
3307;SDS011;1666;48.898;9.182;2023-08-17T05:24:23;31.20;;;15.75;;
3307;SDS011;1666;48.898;9.182;2023-08-17T05:26:53;26.17;;;15.93;;
3307;SDS011;1666;48.898;9.182;2023-08-17T05:29:24;23.85;;;15.10;;
3307;SDS011;1666;48.898;9.182;2023-08-17T05:31:54;23.80;;;16.02;;
3307;SDS011;1666;48.898;9.182;2023-08-17T05:34:24;21.98;;;15.00;;
3307;SDS011;1666;48.898;9.182;2023-08-17T05:36:54;23.33;;;15.38;;
3307;SDS011;1666;48.898;9.182;2023-08-17T05:39:26;23.27;;;14.43;;
3307;SDS011;1666;48.898;9.182;2023-08-17T05:41:58;26.88;;;14.48;;
3307;SDS011;1666;48.898;9.182;2023-08-17T05:44:28;20.15;;;14.65;;
3307;SDS011;1666;48.898;9.182;2023-08-17T05:46:58;23.60;;;15.13;;
3307;SDS011;1666;48.898;9.182;2023-08-17T05:49:28;26.30;;;14.77;;
3307;SDS011;1666;48.898;9.182;2023-08-17T05:51:58;21.45;;;15.18;;
3307;SDS011;1666;48.898;9.182;2023-08-17T05:54:30;24.27;;;15.65;;
3307;SDS011;1666;48.898;9.182;2023-08-17T05:57:01;17.30;;;13.35;;
3307;SDS011;1666;48.898;9.182;2023-08-17T05:59:31;22.67;;;14.73;;
3307;SDS011;1666;48.898;9.182;2023-08-17T06:02:01;23.15;;;16.20;;
3307;SDS011;1666;48.898;9.182;2023-08-17T06:04:31;21.60;;;13.23;;
3307;SDS011;1666;48.898;9.182;2023-08-17T06:07:01;22.33;;;15.43;;
3307;SDS011;1666;48.898;9.182;2023-08-17T06:09:33;19.75;;;15.52;;
3307;SDS011;1666;48.898;9.182;2023-08-17T06:12:04;21.35;;;15.32;;
3307;SDS011;1666;48.898;9.182;2023-08-17T06:14:34;22.42;;;14.45;;
3307;SDS011;1666;48.898;9.182;2023-08-17T06:17:04;22.08;;;15.02;;
3307;SDS011;1666;48.898;9.182;2023-08-17T06:19:34;19.58;;;13.40;;
3307;SDS011;1666;48.898;9.182;2023-08-17T06:22:06;20.60;;;13.15;;
3307;SDS011;1666;48.898;9.182;2023-08-17T06:24:38;20.88;;;15.43;;
3307;SDS011;1666;48.898;9.182;2023-08-17T06:27:08;18.85;;;13.75;;
3307;SDS011;1666;48.898;9.182;2023-08-17T06:29:38;18.02;;;13.63;;
3307;SDS011;1666;48.898;9.182;2023-08-17T06:32:08;24.45;;;14.65;;
3307;SDS011;1666;48.898;9.182;2023-08-17T06:34:38;20.25;;;13.95;;
3307;SDS011;1666;48.898;9.182;2023-08-17T06:37:08;20.80;;;16.35;;
3307;SDS011;1666;48.898;9.182;2023-08-17T06:39:40;22.05;;;13.82;;
3307;SDS011;1666;48.898;9.182;2023-08-17T06:42:10;19.95;;;14.73;;
3307;SDS011;1666;48.898;9.182;2023-08-17T06:44:40;21.77;;;13.32;;
3307;SDS011;1666;48.898;9.182;2023-08-17T06:47:10;20.58;;;14.45;;
3307;SDS011;1666;48.898;9.182;2023-08-17T06:49:40;22.05;;;14.50;;
3307;SDS011;1666;48.898;9.182;2023-08-17T06:52:10;18.10;;;13.07;;
3307;SDS011;1666;48.898;9.182;2023-08-17T06:54:42;17.35;;;13.38;;
3307;SDS011;1666;48.898;9.182;2023-08-17T06:57:12;18.55;;;14.77;;
3307;SDS011;1666;48.898;9.182;2023-08-17T06:59:42;24.98;;;13.02;;
3307;SDS011;1666;48.898;9.182;2023-08-17T07:02:13;19.95;;;14.05;;
3307;SDS011;1666;48.898;9.182;2023-08-17T07:04:43;19.45;;;13.55;;
3307;SDS011;1666;48.898;9.182;2023-08-17T07:07:13;24.58;;;15.82;;
3307;SDS011;1666;48.898;9.182;2023-08-17T07:09:46;21.27;;;14.40;;
3307;SDS011;1666;48.898;9.182;2023-08-17T07:12:16;22.27;;;15.20;;
3307;SDS011;1666;48.898;9.182;2023-08-17T07:14:46;19.92;;;14.10;;
3307;SDS011;1666;48.898;9.182;2023-08-17T07:17:16;22.70;;;14.80;;
3307;SDS011;1666;48.898;9.182;2023-08-17T07:19:45;18.50;;;13.82;;
3307;SDS011;1666;48.898;9.182;2023-08-17T07:22:35;19.40;;;13.57;;
3307;SDS011;1666;48.898;9.182;2023-08-17T07:25:08;17.38;;;13.43;;
3307;SDS011;1666;48.898;9.182;2023-08-17T07:27:38;21.13;;;13.50;;
3307;SDS011;1666;48.898;9.182;2023-08-17T07:30:11;17.40;;;13.00;;
3307;SDS011;1666;48.898;9.182;2023-08-17T07:32:42;19.23;;;12.70;;
3307;SDS011;1666;48.898;9.182;2023-08-17T07:35:12;14.90;;;11.93;;
3307;SDS011;1666;48.898;9.182;2023-08-17T07:37:42;15.65;;;12.05;;
3307;SDS011;1666;48.898;9.182;2023-08-17T07:40:31;16.02;;;12.65;;
3307;SDS011;1666;48.898;9.182;2023-08-17T07:43:04;16.83;;;12.02;;
3307;SDS011;1666;48.898;9.182;2023-08-17T07:45:34;15.35;;;11.48;;
3307;SDS011;1666;48.898;9.182;2023-08-17T07:48:04;16.42;;;11.50;;
3307;SDS011;1666;48.898;9.182;2023-08-17T07:50:35;14.70;;;10.90;;
3307;SDS011;1666;48.898;9.182;2023-08-17T07:53:05;15.95;;;11.75;;
3307;SDS011;1666;48.898;9.182;2023-08-17T07:55:37;13.88;;;10.48;;
3307;SDS011;1666;48.898;9.182;2023-08-17T07:58:07;15.13;;;10.63;;
3307;SDS011;1666;48.898;9.182;2023-08-17T08:00:37;12.82;;;10.07;;
3307;SDS011;1666;48.898;9.182;2023-08-17T08:03:07;16.33;;;10.35;;
3307;SDS011;1666;48.898;9.182;2023-08-17T08:05:37;11.43;;;9.60;;
3307;SDS011;1666;48.898;9.182;2023-08-17T08:08:07;13.48;;;9.73;;
3307;SDS011;1666;48.898;9.182;2023-08-17T08:10:39;17.02;;;10.27;;
3307;SDS011;1666;48.898;9.182;2023-08-17T08:13:09;10.82;;;9.18;;
3307;SDS011;1666;48.898;9.182;2023-08-17T08:15:40;13.02;;;10.60;;
3307;SDS011;1666;48.898;9.182;2023-08-17T08:18:11;13.07;;;10.35;;
3307;SDS011;1666;48.898;9.182;2023-08-17T08:20:41;12.73;;;10.15;;
3307;SDS011;1666;48.898;9.182;2023-08-17T08:23:11;13.15;;;10.05;;
3307;SDS011;1666;48.898;9.182;2023-08-17T08:25:43;12.57;;;9.45;;
3307;SDS011;1666;48.898;9.182;2023-08-17T08:28:13;16.02;;;10.57;;
3307;SDS011;1666;48.898;9.182;2023-08-17T08:30:43;11.82;;;9.80;;
3307;SDS011;1666;48.898;9.182;2023-08-17T08:33:13;11.80;;;10.35;;
3307;SDS011;1666;48.898;9.182;2023-08-17T08:35:43;11.88;;;10.57;;
3307;SDS011;1666;48.898;9.182;2023-08-17T08:38:13;13.25;;;11.02;;
3307;SDS011;1666;48.898;9.182;2023-08-17T08:40:46;12.32;;;9.55;;
3307;SDS011;1666;48.898;9.182;2023-08-17T08:43:17;13.90;;;10.93;;
3307;SDS011;1666;48.898;9.182;2023-08-17T08:45:47;13.05;;;10.63;;
3307;SDS011;1666;48.898;9.182;2023-08-17T08:48:17;14.48;;;10.52;;
3307;SDS011;1666;48.898;9.182;2023-08-17T08:50:51;13.98;;;9.60;;
3307;SDS011;1666;48.898;9.182;2023-08-17T08:53:27;12.10;;;9.77;;
3307;SDS011;1666;48.898;9.182;2023-08-17T08:56:06;11.73;;;9.95;;
3307;SDS011;1666;48.898;9.182;2023-08-17T08:58:38;13.65;;;10.18;;
3307;SDS011;1666;48.898;9.182;2023-08-17T09:01:11;11.77;;;10.02;;
3307;SDS011;1666;48.898;9.182;2023-08-17T09:03:42;11.02;;;9.40;;
3307;SDS011;1666;48.898;9.182;2023-08-17T09:06:13;12.50;;;9.55;;
3307;SDS011;1666;48.898;9.182;2023-08-17T09:08:44;15.90;;;10.27;;
3307;SDS011;1666;48.898;9.182;2023-08-17T09:11:17;11.10;;;9.85;;
3307;SDS011;1666;48.898;9.182;2023-08-17T09:13:47;13.25;;;8.95;;
3307;SDS011;1666;48.898;9.182;2023-08-17T09:16:19;16.10;;;9.95;;
3307;SDS011;1666;48.898;9.182;2023-08-17T09:18:51;12.65;;;10.38;;
3307;SDS011;1666;48.898;9.182;2023-08-17T09:21:23;12.15;;;10.85;;
3307;SDS011;1666;48.898;9.182;2023-08-17T09:23:54;14.93;;;10.70;;
3307;SDS011;1666;48.898;9.182;2023-08-17T09:26:29;14.75;;;10.88;;
3307;SDS011;1666;48.898;9.182;2023-08-17T09:31:30;12.88;;;10.30;;
3307;SDS011;1666;48.898;9.182;2023-08-17T09:34:02;14.38;;;11.00;;
3307;SDS011;1666;48.898;9.182;2023-08-17T09:36:35;12.05;;;10.13;;
3307;SDS011;1666;48.898;9.182;2023-08-17T09:39:05;13.30;;;10.70;;
3307;SDS011;1666;48.898;9.182;2023-08-17T09:41:43;15.75;;;11.48;;
3307;SDS011;1666;48.898;9.182;2023-08-17T09:44:13;13.13;;;10.20;;
3307;SDS011;1666;48.898;9.182;2023-08-17T09:46:45;14.00;;;10.20;;
3307;SDS011;1666;48.898;9.182;2023-08-17T09:49:16;16.52;;;11.10;;
3307;SDS011;1666;48.898;9.182;2023-08-17T09:51:46;13.27;;;10.43;;
3307;SDS011;1666;48.898;9.182;2023-08-17T09:54:22;13.50;;;10.57;;
3307;SDS011;1666;48.898;9.182;2023-08-17T09:56:57;16.02;;;11.25;;
3307;SDS011;1666;48.898;9.182;2023-08-17T09:59:27;15.95;;;11.75;;
3307;SDS011;1666;48.898;9.182;2023-08-17T10:01:57;14.77;;;11.55;;
3307;SDS011;1666;48.898;9.182;2023-08-17T10:04:28;12.98;;;10.90;;
3307;SDS011;1666;48.898;9.182;2023-08-17T10:07:02;12.48;;;10.25;;
3307;SDS011;1666;48.898;9.182;2023-08-17T10:09:36;12.70;;;10.18;;
3307;SDS011;1666;48.898;9.182;2023-08-17T10:14:53;12.65;;;10.07;;
3307;SDS011;1666;48.898;9.182;2023-08-17T10:17:31;14.65;;;10.73;;
3307;SDS011;1666;48.898;9.182;2023-08-17T10:20:09;16.55;;;10.70;;
3307;SDS011;1666;48.898;9.182;2023-08-17T10:22:41;15.23;;;10.43;;
3307;SDS011;1666;48.898;9.182;2023-08-17T10:25:18;14.40;;;10.70;;
3307;SDS011;1666;48.898;9.182;2023-08-17T10:27:55;14.48;;;10.85;;
3307;SDS011;1666;48.898;9.182;2023-08-17T10:30:26;14.77;;;10.65;;
3307;SDS011;1666;48.898;9.182;2023-08-17T10:32:57;15.75;;;10.40;;
3307;SDS011;1666;48.898;9.182;2023-08-17T10:35:27;15.98;;;11.38;;
3307;SDS011;1666;48.898;9.182;2023-08-17T10:38:00;14.60;;;9.68;;
3307;SDS011;1666;48.898;9.182;2023-08-17T10:40:36;11.45;;;8.75;;
3307;SDS011;1666;48.898;9.182;2023-08-17T10:43:11;11.52;;;8.82;;
3307;SDS011;1666;48.898;9.182;2023-08-17T10:48:27;13.57;;;11.30;;
3307;SDS011;1666;48.898;9.182;2023-08-17T10:51:04;11.10;;;9.77;;
3307;SDS011;1666;48.898;9.182;2023-08-17T10:53:34;13.13;;;9.55;;
3307;SDS011;1666;48.898;9.182;2023-08-17T10:56:12;13.82;;;11.45;;
3307;SDS011;1666;48.898;9.182;2023-08-17T11:01:18;12.88;;;9.90;;
3307;SDS011;1666;48.898;9.182;2023-08-17T11:04:10;15.50;;;10.07;;
3307;SDS011;1666;48.898;9.182;2023-08-17T11:09:15;14.63;;;12.07;;
3307;SDS011;1666;48.898;9.182;2023-08-17T11:11:51;16.83;;;11.30;;
3307;SDS011;1666;48.898;9.182;2023-08-17T11:14:25;13.93;;;10.05;;
3307;SDS011;1666;48.898;9.182;2023-08-17T11:16:54;14.07;;;10.85;;
3307;SDS011;1666;48.898;9.182;2023-08-17T11:19:25;13.07;;;10.43;;
3307;SDS011;1666;48.898;9.182;2023-08-17T11:21:55;16.08;;;10.45;;
3307;SDS011;1666;48.898;9.182;2023-08-17T11:24:26;12.05;;;10.07;;
3307;SDS011;1666;48.898;9.182;2023-08-17T11:26:56;14.77;;;10.95;;
3307;SDS011;1666;48.898;9.182;2023-08-17T11:29:31;14.45;;;9.65;;
3307;SDS011;1666;48.898;9.182;2023-08-17T11:32:02;13.85;;;10.50;;
3307;SDS011;1666;48.898;9.182;2023-08-17T11:34:33;12.63;;;9.15;;
3307;SDS011;1666;48.898;9.182;2023-08-17T11:37:04;13.00;;;9.18;;
3307;SDS011;1666;48.898;9.182;2023-08-17T11:39:34;15.82;;;10.07;;
3307;SDS011;1666;48.898;9.182;2023-08-17T11:42:04;10.02;;;8.73;;
3307;SDS011;1666;48.898;9.182;2023-08-17T11:44:38;9.32;;;8.30;;
3307;SDS011;1666;48.898;9.182;2023-08-17T11:47:09;10.63;;;9.05;;
3307;SDS011;1666;48.898;9.182;2023-08-17T11:49:39;12.10;;;8.57;;
3307;SDS011;1666;48.898;9.182;2023-08-17T11:52:10;8.63;;;7.72;;
3307;SDS011;1666;48.898;9.182;2023-08-17T11:54:40;11.75;;;7.00;;
3307;SDS011;1666;48.898;9.182;2023-08-17T11:57:10;12.30;;;8.40;;
3307;SDS011;1666;48.898;9.182;2023-08-17T11:59:43;11.90;;;9.63;;
3307;SDS011;1666;48.898;9.182;2023-08-17T12:02:13;10.35;;;7.82;;
3307;SDS011;1666;48.898;9.182;2023-08-17T12:04:43;8.20;;;7.15;;
3307;SDS011;1666;48.898;9.182;2023-08-17T12:07:13;12.77;;;8.93;;
3307;SDS011;1666;48.898;9.182;2023-08-17T12:09:44;7.88;;;6.32;;
3307;SDS011;1666;48.898;9.182;2023-08-17T12:12:17;9.07;;;7.25;;
3307;SDS011;1666;48.898;9.182;2023-08-17T12:14:51;7.57;;;5.97;;
3307;SDS011;1666;48.898;9.182;2023-08-17T12:17:21;8.25;;;6.40;;
3307;SDS011;1666;48.898;9.182;2023-08-17T12:19:53;10.60;;;5.63;;
3307;SDS011;1666;48.898;9.182;2023-08-17T12:22:24;5.90;;;5.30;;
3307;SDS011;1666;48.898;9.182;2023-08-17T12:24:55;6.50;;;5.55;;
3307;SDS011;1666;48.898;9.182;2023-08-17T12:27:25;10.05;;;5.93;;
3307;SDS011;1666;48.898;9.182;2023-08-17T12:29:58;5.70;;;5.10;;
3307;SDS011;1666;48.898;9.182;2023-08-17T12:32:28;6.97;;;5.10;;
3307;SDS011;1666;48.898;9.182;2023-08-17T12:34:58;6.65;;;4.68;;
3307;SDS011;1666;48.898;9.182;2023-08-17T12:37:28;8.68;;;4.80;;
3307;SDS011;1666;48.898;9.182;2023-08-17T12:39:58;6.07;;;4.88;;
3307;SDS011;1666;48.898;9.182;2023-08-17T12:42:29;4.95;;;4.35;;
3307;SDS011;1666;48.898;9.182;2023-08-17T12:45:02;6.97;;;4.65;;
3307;SDS011;1666;48.898;9.182;2023-08-17T12:47:32;5.22;;;4.70;;
3307;SDS011;1666;48.898;9.182;2023-08-17T12:50:02;5.43;;;4.43;;
3307;SDS011;1666;48.898;9.182;2023-08-17T12:52:33;6.65;;;4.60;;
3307;SDS011;1666;48.898;9.182;2023-08-17T12:55:03;4.93;;;4.43;;
3307;SDS011;1666;48.898;9.182;2023-08-17T12:57:34;5.45;;;4.60;;
3307;SDS011;1666;48.898;9.182;2023-08-17T13:00:07;5.82;;;5.22;;
3307;SDS011;1666;48.898;9.182;2023-08-17T13:02:41;5.32;;;4.82;;
3307;SDS011;1666;48.898;9.182;2023-08-17T13:05:11;5.65;;;4.75;;
3307;SDS011;1666;48.898;9.182;2023-08-17T13:07:42;6.32;;;4.70;;
3307;SDS011;1666;48.898;9.182;2023-08-17T13:10:12;8.55;;;5.35;;
3307;SDS011;1666;48.898;9.182;2023-08-17T13:12:42;7.45;;;5.35;;
3307;SDS011;1666;48.898;9.182;2023-08-17T13:15:16;6.53;;;5.93;;
3307;SDS011;1666;48.898;9.182;2023-08-17T13:17:46;7.20;;;6.20;;
3307;SDS011;1666;48.898;9.182;2023-08-17T13:20:16;8.73;;;6.68;;
3307;SDS011;1666;48.898;9.182;2023-08-17T13:22:46;7.25;;;6.43;;
3307;SDS011;1666;48.898;9.182;2023-08-17T13:25:16;7.13;;;6.32;;
3307;SDS011;1666;48.898;9.182;2023-08-17T13:27:46;10.18;;;7.50;;
3307;SDS011;1666;48.898;9.182;2023-08-17T13:30:19;9.10;;;7.13;;
3307;SDS011;1666;48.898;9.182;2023-08-17T13:32:49;8.77;;;7.22;;
3307;SDS011;1666;48.898;9.182;2023-08-17T13:35:19;9.95;;;7.88;;
3307;SDS011;1666;48.898;9.182;2023-08-17T13:37:51;9.98;;;7.10;;
3307;SDS011;1666;48.898;9.182;2023-08-17T13:40:23;9.00;;;7.18;;
3307;SDS011;1666;48.898;9.182;2023-08-17T13:42:53;9.85;;;7.60;;
3307;SDS011;1666;48.898;9.182;2023-08-17T13:45:27;10.88;;;8.15;;
3307;SDS011;1666;48.898;9.182;2023-08-17T13:47:58;10.07;;;8.13;;
3307;SDS011;1666;48.898;9.182;2023-08-17T13:50:28;9.00;;;8.10;;
3307;SDS011;1666;48.898;9.182;2023-08-17T13:52:58;9.75;;;8.75;;
3307;SDS011;1666;48.898;9.182;2023-08-17T13:55:29;10.55;;;9.15;;
3307;SDS011;1666;48.898;9.182;2023-08-17T13:57:59;11.02;;;9.27;;
3307;SDS011;1666;48.898;9.182;2023-08-17T14:00:31;11.82;;;9.57;;
3307;SDS011;1666;48.898;9.182;2023-08-17T14:03:01;13.25;;;10.15;;
3307;SDS011;1666;48.898;9.182;2023-08-17T14:05:34;14.90;;;10.43;;
3307;SDS011;1666;48.898;9.182;2023-08-17T14:08:06;10.40;;;9.13;;
3307;SDS011;1666;48.898;9.182;2023-08-17T14:10:37;10.82;;;9.48;;
3307;SDS011;1666;48.898;9.182;2023-08-17T14:13:07;10.05;;;9.07;;
3307;SDS011;1666;48.898;9.182;2023-08-17T14:15:39;10.98;;;9.73;;
3307;SDS011;1666;48.898;9.182;2023-08-17T14:18:09;10.95;;;9.63;;
3307;SDS011;1666;48.898;9.182;2023-08-17T14:20:39;10.02;;;9.05;;
3307;SDS011;1666;48.898;9.182;2023-08-17T14:23:09;10.65;;;9.55;;
3307;SDS011;1666;48.898;9.182;2023-08-17T14:25:39;10.50;;;9.18;;
3307;SDS011;1666;48.898;9.182;2023-08-17T14:28:09;12.70;;;9.38;;
3307;SDS011;1666;48.898;9.182;2023-08-17T14:30:41;10.18;;;9.18;;
3307;SDS011;1666;48.898;9.182;2023-08-17T14:33:18;11.48;;;8.57;;
3307;SDS011;1666;48.898;9.182;2023-08-17T14:35:48;11.57;;;8.48;;
3307;SDS011;1666;48.898;9.182;2023-08-17T14:38:18;10.05;;;9.07;;
3307;SDS011;1666;48.898;9.182;2023-08-17T14:40:48;9.77;;;8.77;;
3307;SDS011;1666;48.898;9.182;2023-08-17T14:43:18;10.57;;;8.50;;
3307;SDS011;1666;48.898;9.182;2023-08-17T14:45:50;14.90;;;9.02;;
3307;SDS011;1666;48.898;9.182;2023-08-17T14:48:20;8.60;;;7.80;;
3307;SDS011;1666;48.898;9.182;2023-08-17T14:50:51;9.50;;;8.13;;
3307;SDS011;1666;48.898;9.182;2023-08-17T14:53:21;9.48;;;8.00;;
3307;SDS011;1666;48.898;9.182;2023-08-17T14:55:51;11.15;;;8.50;;
3307;SDS011;1666;48.898;9.182;2023-08-17T14:58:21;10.13;;;8.50;;
3307;SDS011;1666;48.898;9.182;2023-08-17T15:00:53;9.07;;;7.40;;
3307;SDS011;1666;48.898;9.182;2023-08-17T15:03:23;8.52;;;7.63;;
3307;SDS011;1666;48.898;9.182;2023-08-17T15:05:54;9.15;;;8.23;;
3307;SDS011;1666;48.898;9.182;2023-08-17T15:08:24;8.48;;;7.45;;
3307;SDS011;1666;48.898;9.182;2023-08-17T15:10:54;11.35;;;7.78;;
3307;SDS011;1666;48.898;9.182;2023-08-17T15:13:28;8.98;;;7.65;;
3307;SDS011;1666;48.898;9.182;2023-08-17T15:16:02;8.18;;;7.38;;
3307;SDS011;1666;48.898;9.182;2023-08-17T15:18:32;10.23;;;7.13;;
3307;SDS011;1666;48.898;9.182;2023-08-17T15:21:02;11.02;;;8.57;;
3307;SDS011;1666;48.898;9.182;2023-08-17T15:23:32;7.65;;;6.90;;
3307;SDS011;1666;48.898;9.182;2023-08-17T15:26:02;8.50;;;7.35;;
3307;SDS011;1666;48.898;9.182;2023-08-17T15:28:32;8.32;;;7.22;;
3307;SDS011;1666;48.898;9.182;2023-08-17T15:31:05;9.45;;;6.93;;
3307;SDS011;1666;48.898;9.182;2023-08-17T15:33:38;7.25;;;6.55;;
3307;SDS011;1666;48.898;9.182;2023-08-17T15:36:08;11.68;;;7.13;;